Time;durP1;ratioP1;P1;durP2;ratioP2;P2;SDS_P1;SDS_P2;PMS_P1;PMS_P2;Temp;Humidity;BMP_temperature;BMP_pressure;BME280_temperature;BME280_humidity;BME280_pressure;Samples;Min_cycle;Max_cycle;Signal;HPM_P1;HPM_P2
2021/12/21 00:01:31;;;;;;;25.35;12.50;;;1.40;99.90;;;;;;4939388;29;20554;-81
2021/12/21 00:04:00;;;;;;;27.42;12.10;;;1.30;99.90;;;;;;4938974;29;20058;-81
2021/12/21 00:06:28;;;;;;;27.90;12.27;;;1.30;99.90;;;;;;4940906;28;20118;-81
2021/12/21 00:08:56;;;;;;;25.92;11.43;;;1.90;99.90;;;;;;4955919;29;20058;-81
2021/12/21 00:11:22;;;;;;;30.33;12.32;;;1.40;99.90;;;;;;4957201;28;20035;-81
2021/12/21 00:21:39;;;;;;;25.50;11.65;;;1.30;99.90;;;;;;4957234;28;20043;-81
2021/12/21 00:24:20;;;;;;;29.42;12.75;;;2.60;99.90;;;;;;4940324;29;20036;-80
2021/12/21 00:26:46;;;;;;;28.50;13.10;;;1.30;99.90;;;;;;4936648;29;20441;-80
2021/12/21 00:29:14;;;;;;;22.70;12.43;;;1.20;99.90;;;;;;4915686;29;20086;-80
2021/12/21 00:31:40;;;;;;;28.60;13.00;;;1.30;99.90;;;;;;4956958;29;20039;-80
2021/12/21 00:34:08;;;;;;;31.80;12.88;;;1.20;99.90;;;;;;4955218;29;20046;-80
2021/12/21 00:36:37;;;;;;;23.42;11.82;;;1.30;99.90;;;;;;4936323;29;20404;-80
2021/12/21 00:39:06;;;;;;;27.13;11.73;;;1.30;99.90;;;;;;4939334;29;20063;-81
2021/12/21 00:41:34;;;;;;;30.27;14.13;;;1.20;99.90;;;;;;4957096;28;20404;-81
2021/12/21 00:44:00;;;;;;;30.75;15.65;;;1.20;99.90;;;;;;4955115;29;20051;-81
2021/12/21 00:46:26;;;;;;;27.38;12.75;;;2.10;99.90;;;;;;4955319;29;20122;-81
2021/12/21 00:49:11;;;;;;;26.08;12.02;;;1.20;99.90;;;;;;4954805;29;20054;-81
2021/12/21 00:51:37;;;;;;;27.77;12.43;;;1.30;99.90;;;;;;4923000;29;20049;-81
2021/12/21 00:54:06;;;;;;;27.20;12.55;;;2.10;99.90;;;;;;4925394;28;20118;-81
2021/12/21 00:56:31;;;;;;;25.08;12.15;;;1.80;99.90;;;;;;4956653;28;20050;-80
2021/12/21 00:58:58;;;;;;;28.20;11.77;;;1.60;99.90;;;;;;4955868;29;20039;-81
2021/12/21 01:01:24;;;;;;;22.70;11.52;;;1.50;99.90;;;;;;4938982;29;20050;-81
2021/12/21 01:03:53;;;;;;;27.58;11.88;;;1.10;99.90;;;;;;4954635;29;20480;-81
2021/12/21 01:09:33;;;;;;;24.30;11.48;;;1.70;99.90;;;;;;4955720;29;20094;-82
2021/12/21 01:11:54;;;;;;;30.02;12.90;;;1.20;99.90;;;;;;4934426;29;20051;-82
2021/12/21 01:14:57;;;;;;;24.73;12.50;;;1.10;99.90;;;;;;4939396;29;20164;-83
2021/12/21 01:20:02;;;;;;;32.22;13.20;;;1.10;99.90;;;;;;4954662;29;20425;-84
2021/12/21 01:36:39;;;;;;;23.08;12.10;;;1.00;99.90;;;;;;4891040;29;20537;-84
2021/12/21 01:44:34;;;;;;;26.98;12.02;;;1.00;99.90;;;;;;4952902;29;20130;-83
2021/12/21 01:49:49;;;;;;;27.60;11.38;;;1.90;99.90;;;;;;4942744;29;20047;-82
2021/12/21 01:52:25;;;;;;;27.85;11.32;;;1.10;99.90;;;;;;4938359;29;20043;-81
2021/12/21 01:54:53;;;;;;;27.20;11.40;;;1.00;99.90;;;;;;4938280;29;20445;-81
2021/12/21 01:57:22;;;;;;;21.63;11.07;;;1.00;99.90;;;;;;4938245;29;20081;-82
2021/12/21 01:59:49;;;;;;;23.63;10.05;;;1.70;99.90;;;;;;4935965;29;20047;-81
2021/12/21 02:02:19;;;;;;;20.08;10.63;;;1.80;99.90;;;;;;4955378;29;20106;-81
2021/12/21 02:04:45;;;;;;;23.45;10.52;;;1.40;99.90;;;;;;4937794;29;20051;-78
2021/12/21 02:07:14;;;;;;;23.92;10.70;;;0.90;99.90;;;;;;4952973;28;20039;-78
2021/12/21 02:09:40;;;;;;;22.67;10.32;;;0.90;99.90;;;;;;4937768;29;20051;-80
2021/12/21 02:12:10;;;;;;;18.25;10.07;;;0.90;99.90;;;;;;4937625;29;20547;-79
2021/12/21 02:14:36;;;;;;;22.73;11.13;;;0.90;99.90;;;;;;4953484;29;20046;-80
2021/12/21 02:20:51;;;;;;;23.33;11.48;;;0.90;99.90;;;;;;4955319;28;20423;-79
2021/12/21 02:22:56;;;;;;;24.48;11.00;;;0.90;99.90;;;;;;4921015;29;20508;-79
2021/12/21 02:28:33;;;;;;;22.58;11.63;;;0.90;99.90;;;;;;4953476;28;20047;-78
2021/12/21 02:30:52;;;;;;;28.05;12.98;;;0.90;99.90;;;;;;4952918;29;20049;-79
2021/12/21 02:33:18;;;;;;;29.00;12.27;;;1.30;99.90;;;;;;4954956;28;20047;-80
2021/12/21 02:35:44;;;;;;;24.67;11.57;;;1.60;99.90;;;;;;4940269;29;20042;-79
2021/12/21 02:38:10;;;;;;;23.67;11.00;;;1.00;99.90;;;;;;4956746;28;20070;-79
2021/12/21 02:40:38;;;;;;;25.70;11.90;;;0.90;99.90;;;;;;4956147;28;20054;-79
2021/12/21 02:43:13;;;;;;;25.52;11.07;;;0.90;99.90;;;;;;4956656;28;20057;-82
2021/12/21 02:45:40;;;;;;;24.05;11.68;;;0.90;99.90;;;;;;4956066;28;20096;-79
2021/12/21 02:48:06;;;;;;;23.17;11.13;;;0.90;99.90;;;;;;4956079;28;20050;-80
2021/12/21 02:50:33;;;;;;;24.40;12.30;;;0.80;99.90;;;;;;4952041;28;20159;-79
2021/12/21 02:53:03;;;;;;;19.42;10.82;;;0.80;99.90;;;;;;4929733;28;20054;-79
2021/12/21 02:55:29;;;;;;;24.48;10.93;;;0.80;99.90;;;;;;4956335;28;20515;-79
2021/12/21 02:57:57;;;;;;;24.20;10.25;;;0.80;99.90;;;;;;4973568;28;20118;-80
2021/12/21 03:00:27;;;;;;;20.23;9.80;;;0.80;99.90;;;;;;4951305;28;20101;-79
2021/12/21 03:02:53;;;;;;;23.20;9.80;;;0.80;99.90;;;;;;4956299;28;20396;-79
2021/12/21 03:05:28;;;;;;;15.60;8.77;;;1.50;99.90;;;;;;4954687;28;20514;-80
2021/12/21 03:08:11;;;;;;;20.35;9.52;;;0.70;99.90;;;;;;4968532;28;20062;-79
2021/12/21 03:10:38;;;;;;;18.92;8.73;;;0.80;99.90;;;;;;4942475;28;20133;-79
2021/12/21 03:15:49;;;;;;;20.90;8.93;;;1.40;99.90;;;;;;4955859;28;20050;-79
2021/12/21 03:18:14;;;;;;;17.63;8.57;;;0.80;99.90;;;;;;4956132;28;20043;-78
2021/12/21 03:20:40;;;;;;;18.88;8.73;;;0.80;99.90;;;;;;4959712;28;20450;-79
2021/12/21 03:23:06;;;;;;;18.90;9.00;;;0.80;99.90;;;;;;4942486;28;20031;-79
2021/12/21 03:25:31;;;;;;;16.42;7.72;;;0.70;99.90;;;;;;4977362;28;20054;-79
2021/12/21 03:27:57;;;;;;;22.65;8.43;;;0.70;99.90;;;;;;4943675;28;20082;-79
2021/12/21 03:30:27;;;;;;;17.25;7.78;;;0.80;99.90;;;;;;4959925;28;20049;-80
2021/12/21 03:32:53;;;;;;;15.13;7.28;;;0.70;99.90;;;;;;4976828;28;20053;-80
2021/12/21 03:35:22;;;;;;;15.02;7.95;;;0.70;99.90;;;;;;4924456;29;20043;-81
2021/12/21 03:37:51;;;;;;;17.67;8.45;;;1.40;99.90;;;;;;4924451;29;20047;-81
2021/12/21 03:40:17;;;;;;;17.08;8.05;;;1.00;99.90;;;;;;4958269;28;20031;-81
2021/12/21 03:42:42;;;;;;;18.13;7.85;;;0.70;99.90;;;;;;4943680;28;20047;-80
2021/12/21 03:45:09;;;;;;;19.02;8.27;;;0.60;99.90;;;;;;4943342;28;20097;-80
2021/12/21 03:47:36;;;;;;;16.52;7.63;;;0.70;99.90;;;;;;4943644;28;20093;-80
2021/12/21 03:50:13;;;;;;;16.05;7.05;;;0.70;99.90;;;;;;4959344;28;20071;-80
2021/12/21 03:52:39;;;;;;;17.88;7.68;;;0.60;99.90;;;;;;4943396;28;20043;-80
2021/12/21 03:55:05;;;;;;;14.02;7.82;;;0.70;99.90;;;;;;4975338;28;20115;-80
2021/12/21 03:57:31;;;;;;;16.83;8.15;;;0.60;99.90;;;;;;4959255;28;20050;-80
2021/12/21 03:59:57;;;;;;;20.02;8.15;;;0.90;99.90;;;;;;4959325;28;20042;-81
2021/12/21 04:02:30;;;;;;;18.90;8.98;;;0.60;99.90;;;;;;4959361;28;20080;-81
2021/12/21 04:05:01;;;;;;;19.92;8.90;;;0.60;99.90;;;;;;4942249;28;20491;-81
2021/12/21 04:07:32;;;;;;;14.00;7.40;;;1.00;99.90;;;;;;4913704;28;20089;-81
2021/12/21 04:10:21;;;;;;;26.15;8.65;;;0.60;99.90;;;;;;4942567;28;20196;-81
2021/12/21 04:12:50;;;;;;;13.35;7.70;;;0.90;99.90;;;;;;4958823;28;20133;-81
2021/12/21 04:15:23;;;;;;;17.95;8.43;;;1.50;99.90;;;;;;4942651;28;20050;-81
2021/12/21 04:17:57;;;;;;;;;;;0.50;99.90;;;;;;4943556;28;20039;-81
2021/12/21 04:20:29;;;;;;;17.65;8.57;;;0.40;99.90;;;;;;4942810;28;19925;-81
2021/12/21 04:22:58;;;;;;;18.75;9.23;;;0.50;99.90;;;;;;4923716;29;20042;-81
2021/12/21 04:25:36;;;;;;;21.55;9.07;;;0.40;99.90;;;;;;4923843;29;20039;-81
2021/12/21 04:28:08;;;;;;;19.33;9.38;;;0.60;99.90;;;;;;4924050;29;20098;-81
2021/12/21 04:30:38;;;;;;;20.60;9.40;;;0.50;99.90;;;;;;4929420;28;20129;-81
2021/12/21 04:33:07;;;;;;;24.90;9.73;;;;;;;;;;4943640;28;20038;-81
2021/12/21 04:35:54;;;;;;;19.50;9.82;;;0.50;99.90;;;;;;4942114;28;20042;-81
2021/12/21 04:38:22;;;;;;;20.67;9.88;;;1.00;99.90;;;;;;4942155;28;20503;-81
2021/12/21 04:41:06;;;;;;;18.90;9.55;;;0.60;99.90;;;;;;4942833;28;20046;-81
2021/12/21 04:43:32;;;;;;;20.73;10.00;;;1.10;99.90;;;;;;4924340;29;20058;-81
2021/12/21 04:45:58;;;;;;;18.80;10.00;;;0.90;99.90;;;;;;4939859;28;20058;-80
2021/12/21 04:48:27;;;;;;;13.80;9.32;;;1.20;99.90;;;;;;4942614;28;20510;-80
2021/12/21 04:50:53;;;;;;;14.48;9.27;;;0.50;99.90;;;;;;4942044;28;20069;-79
2021/12/21 04:53:18;;;;;;;20.85;9.55;;;1.00;99.90;;;;;;4942071;28;20034;-79
2021/12/21 04:55:44;;;;;;;19.52;9.27;;;0.50;99.90;;;;;;4974345;28;20043;-79
2021/12/21 04:58:10;;;;;;;18.13;9.20;;;1.20;99.90;;;;;;4941885;28;20069;-78
2021/12/21 05:00:37;;;;;;;18.13;8.88;;;1.10;99.90;;;;;;4957927;28;20062;-79
2021/12/21 05:03:04;;;;;;;16.77;9.02;;;1.20;99.90;;;;;;4942593;28;20054;-79
2021/12/21 05:05:32;;;;;;;19.88;9.55;;;0.40;99.90;;;;;;4941822;28;20467;-79
2021/12/21 05:08:17;;;;;;;20.08;9.25;;;0.40;99.90;;;;;;4957871;28;20054;-79
2021/12/21 05:10:56;;;;;;;23.08;8.95;;;0.40;99.90;;;;;;4958128;28;20069;-79
2021/12/21 05:13:25;;;;;;;22.55;10.23;;;0.50;99.90;;;;;;4948908;29;20039;-79
2021/12/21 05:15:51;;;;;;;18.90;9.00;;;0.50;99.90;;;;;;4971567;28;20049;-80
2021/12/21 05:18:17;;;;;;;17.63;9.40;;;0.50;99.90;;;;;;4957716;28;20045;-79
2021/12/21 05:20:44;;;;;;;23.83;9.68;;;0.40;99.90;;;;;;4957920;28;20034;-79
2021/12/21 05:23:10;;;;;;;18.90;8.90;;;0.40;99.90;;;;;;4957887;28;20046;-79
2021/12/21 05:25:42;;;;;;;19.38;8.95;;;0.40;99.90;;;;;;4957193;28;20050;-79
2021/12/21 05:28:11;;;;;;;16.88;8.70;;;0.40;99.90;;;;;;4957201;28;20047;-79
2021/12/21 05:30:39;;;;;;;18.60;9.45;;;0.50;99.90;;;;;;4956288;28;20038;-79
2021/12/21 05:33:08;;;;;;;18.65;8.65;;;0.30;99.90;;;;;;4957317;28;20042;-79
2021/12/21 05:35:35;;;;;;;18.88;9.20;;;0.30;99.90;;;;;;4957623;28;20098;-79
2021/12/21 05:38:04;;;;;;;19.75;9.35;;;0.30;99.90;;;;;;4957314;28;20034;-79
2021/12/21 05:40:40;;;;;;;17.23;8.80;;;0.30;99.90;;;;;;4941036;28;20047;-79
2021/12/21 05:43:08;;;;;;;17.42;8.82;;;0.30;99.90;;;;;;4957512;28;20042;-80
2021/12/21 05:45:34;;;;;;;15.60;7.75;;;0.30;99.90;;;;;;4941888;28;20120;-80
2021/12/21 05:48:00;;;;;;;14.90;8.00;;;0.30;99.90;;;;;;4927901;29;20130;-80
2021/12/21 05:50:26;;;;;;;13.93;7.78;;;0.30;99.90;;;;;;4938096;29;20078;-79
2021/12/21 05:52:52;;;;;;;15.80;7.82;;;0.30;99.90;;;;;;4933812;28;20035;-79
2021/12/21 05:55:19;;;;;;;21.88;7.53;;;0.30;99.90;;;;;;4957202;28;20164;-79
2021/12/21 05:57:45;;;;;;;15.27;7.15;;;1.10;99.90;;;;;;4957375;28;20039;-79
2021/12/21 06:00:16;;;;;;;15.35;7.22;;;0.60;99.90;;;;;;4957355;28;20123;-79
2021/12/21 06:02:43;;;;;;;14.77;7.47;;;0.30;99.90;;;;;;4956650;28;20047;-78
2021/12/21 06:05:09;;;;;;;17.40;7.78;;;0.30;99.90;;;;;;4956246;28;20357;-78
2021/12/21 06:07:35;;;;;;;12.88;6.75;;;0.30;99.90;;;;;;4956618;28;20125;-78
2021/12/21 06:10:13;;;;;;;17.95;8.25;;;0.80;99.90;;;;;;4956744;28;20129;-78
2021/12/21 06:25:09;;;;;;;15.77;7.07;;;0.20;99.90;;;;;;4875218;29;20545;-78
2021/12/21 06:26:54;;;;;;;18.38;7.88;;;0.20;99.90;;;;;;4943814;28;20091;-78
2021/12/21 06:29:20;;;;;;;19.05;7.82;;;0.20;99.90;;;;;;4946627;28;20065;-78
2021/12/21 06:31:46;;;;;;;14.85;7.22;;;0.20;99.90;;;;;;4940695;28;20038;-78
2021/12/21 06:34:12;;;;;;;14.68;7.38;;;0.30;99.90;;;;;;4940781;28;20082;-78
2021/12/21 06:36:38;;;;;;;18.20;7.28;;;0.20;99.90;;;;;;4963225;28;20117;-78
2021/12/21 06:39:07;;;;;;;17.80;7.55;;;0.20;99.90;;;;;;4953187;28;20052;-78
2021/12/21 06:41:37;;;;;;;18.52;7.15;;;0.20;99.90;;;;;;4922568;29;20063;-79
2021/12/21 06:44:04;;;;;;;19.35;7.70;;;0.20;99.90;;;;;;4953318;29;20043;-79
2021/12/21 06:46:49;;;;;;;17.90;7.45;;;0.20;99.90;;;;;;4953038;29;20054;-78
2021/12/21 06:52:01;;;;;;;17.23;7.38;;;-0.60;99.90;;;;;;4952029;28;20043;-78
2021/12/21 06:54:29;;;;;;;20.33;7.38;;;0.20;99.90;;;;;;4951954;29;20047;-78
2021/12/21 06:56:56;;;;;;;17.80;7.63;;;-0.20;99.90;;;;;;4953054;29;20039;-78
2021/12/21 06:59:22;;;;;;;16.70;7.53;;;0.20;99.90;;;;;;4936997;29;20047;-81
2021/12/21 07:01:51;;;;;;;23.80;7.97;;;0.20;99.90;;;;;;4954395;28;20035;-81
2021/12/21 07:04:20;;;;;;;20.42;7.78;;;0.20;99.90;;;;;;4953161;29;20093;-78
2021/12/21 07:06:46;;;;;;;18.13;7.72;;;0.20;99.90;;;;;;4936795;29;20045;-78
2021/12/21 07:09:25;;;;;;;13.55;7.28;;;0.20;99.90;;;;;;4953994;28;20448;-78
2021/12/21 07:12:08;;;;;;;22.33;8.20;;;0.20;99.90;;;;;;4951849;29;20102;-82
2021/12/21 07:20:06;;;;;;;22.75;7.55;;;0.30;99.90;;;;;;4952626;29;20047;-81
2021/12/21 07:22:31;;;;;;;20.60;8.05;;;0.20;99.90;;;;;;4953434;29;20118;-80
2021/12/21 07:24:57;;;;;;;22.55;7.63;;;0.20;99.90;;;;;;4952633;29;20041;-80
2021/12/21 07:27:23;;;;;;;21.48;7.43;;;0.20;99.90;;;;;;4953392;29;20047;-78
2021/12/21 07:29:49;;;;;;;18.85;7.60;;;0.50;99.90;;;;;;4951043;29;20035;-79
2021/12/21 07:32:15;;;;;;;21.58;8.10;;;0.20;99.90;;;;;;4928948;29;20050;-80
2021/12/21 07:34:41;;;;;;;16.60;7.07;;;0.40;99.90;;;;;;4946965;29;20447;-78
2021/12/21 07:37:09;;;;;;;19.88;7.38;;;0.20;99.90;;;;;;4936892;29;20043;-78
2021/12/21 07:39:36;;;;;;;19.95;7.40;;;0.20;99.90;;;;;;4945096;28;20067;-78
2021/12/21 07:42:04;;;;;;;16.73;6.88;;;0.40;99.90;;;;;;4948793;29;20086;-79
2021/12/21 07:44:30;;;;;;;17.30;7.43;;;0.20;99.90;;;;;;4952839;29;20074;-78
2021/12/21 07:46:56;;;;;;;18.05;6.72;;;0.20;99.90;;;;;;4951422;29;20045;-78
2021/12/21 07:49:24;;;;;;;14.75;7.13;;;0.20;99.90;;;;;;4949804;29;20051;-74
2021/12/21 07:51:50;;;;;;;19.00;6.88;;;0.30;99.90;;;;;;4952604;29;20046;-74
2021/12/21 07:54:18;;;;;;;15.55;6.18;;;0.20;99.90;;;;;;4948583;28;20392;-76
2021/12/21 07:56:44;;;;;;;18.70;7.28;;;0.20;99.90;;;;;;4948627;29;20057;-80
2021/12/21 07:59:13;;;;;;;13.93;7.20;;;0.30;99.90;;;;;;4929446;29;20109;-77
2021/12/21 08:01:41;;;;;;;19.67;7.82;;;0.40;99.90;;;;;;4949759;29;20043;-80
2021/12/21 08:04:07;;;;;;;18.70;7.03;;;0.30;99.90;;;;;;4921233;29;20580;-82
2021/12/21 08:06:38;;;;;;;18.23;7.60;;;0.30;99.90;;;;;;4938687;29;20043;-82
2021/12/21 08:09:04;;;;;;;17.02;7.45;;;0.30;99.90;;;;;;4956445;28;20114;-81
2021/12/21 08:14:00;;;;;;;15.02;7.28;;;0.30;99.90;;;;;;4945302;29;20404;-81
2021/12/21 08:16:29;;;;;;;17.05;6.88;;;0.30;99.90;;;;;;4955222;29;20392;-81
2021/12/21 08:18:55;;;;;;;19.13;7.55;;;0.40;99.90;;;;;;4955044;29;20086;-80
2021/12/21 08:21:24;;;;;;;16.17;8.50;;;0.30;99.90;;;;;;4953892;29;20051;-81
2021/12/21 08:23:50;;;;;;;14.93;8.45;;;0.60;99.90;;;;;;4956641;28;20048;-81
2021/12/21 08:26:16;;;;;;;13.98;7.60;;;1.00;99.90;;;;;;4946063;28;20431;-81
2021/12/21 08:28:41;;;;;;;21.00;9.00;;;0.40;99.90;;;;;;4953452;28;20515;-76
2021/12/21 08:31:13;;;;;;;15.30;8.32;;;0.40;99.90;;;;;;4939586;28;20390;-78
2021/12/21 08:33:40;;;;;;;18.98;9.18;;;0.40;99.90;;;;;;4933046;29;20043;-80
2021/12/21 08:36:08;;;;;;;16.92;9.35;;;0.40;99.90;;;;;;4923412;29;20457;-80
2021/12/21 08:38:37;;;;;;;19.00;9.20;;;0.50;99.90;;;;;;4951700;28;20083;-79
2021/12/21 08:41:04;;;;;;;17.63;9.07;;;0.50;99.90;;;;;;4929826;28;20505;-79
2021/12/21 08:43:32;;;;;;;17.13;8.10;;;0.50;99.90;;;;;;4927818;28;20434;-79
2021/12/21 08:45:58;;;;;;;21.15;8.35;;;0.60;99.90;;;;;;4915116;28;20106;-79
2021/12/21 08:48:26;;;;;;;22.08;9.05;;;1.10;99.90;;;;;;4945903;28;20046;-78
2021/12/21 08:50:55;;;;;;;14.68;7.75;;;0.40;99.90;;;;;;4943503;28;20050;-81
2021/12/21 08:53:22;;;;;;;20.92;8.30;;;0.60;99.90;;;;;;4919410;28;20046;-76
2021/12/21 08:55:48;;;;;;;18.77;8.77;;;0.60;99.90;;;;;;4946999;28;20137;-77
2021/12/21 08:58:15;;;;;;;14.35;7.80;;;0.60;99.90;;;;;;4943965;28;20466;-84
2021/12/21 09:00:41;;;;;;;14.63;7.32;;;0.70;99.90;;;;;;4941881;28;20043;-83
2021/12/21 09:03:08;;;;;;;16.33;7.50;;;0.70;99.90;;;;;;4938142;28;20046;-84
2021/12/21 09:05:35;;;;;;;15.43;8.30;;;0.80;99.90;;;;;;4925363;28;20044;-84
2021/12/21 09:08:10;;;;;;;13.95;8.18;;;0.80;99.90;;;;;;4964109;28;20068;-77
2021/12/21 09:10:36;;;;;;;15.45;7.60;;;0.70;99.90;;;;;;4962747;28;20391;-82
2021/12/21 09:13:02;;;;;;;14.13;7.63;;;0.90;99.90;;;;;;4942786;28;20086;-82
2021/12/21 09:15:29;;;;;;;18.30;7.63;;;0.80;99.90;;;;;;4944036;28;20069;-79
2021/12/21 09:17:55;;;;;;;15.45;8.13;;;1.00;99.90;;;;;;4946790;28;20039;-78
2021/12/21 09:20:38;;;;;;;19.20;10.10;;;0.90;99.90;;;;;;4929327;28;20082;-80
2021/12/21 09:23:04;;;;;;;25.50;12.63;;;0.90;99.90;;;;;;4962255;28;20401;-80
2021/12/21 09:25:31;;;;;;;21.85;13.95;;;1.40;99.90;;;;;;4958152;28;20047;-79
2021/12/21 09:27:58;;;;;;;34.03;21.17;;;0.90;99.90;;;;;;4961361;28;20113;-81
2021/12/21 09:30:28;;;;;;;49.45;33.40;;;1.10;99.90;;;;;;4948203;28;20108;-82
2021/12/21 09:32:54;;;;;;;47.30;36.22;;;1.00;99.90;;;;;;4928288;28;20039;-82
2021/12/21 09:35:21;;;;;;;54.13;36.88;;;1.20;99.90;;;;;;4928585;28;20074;-85
2021/12/21 09:37:47;;;;;;;43.42;31.33;;;1.30;99.90;;;;;;4961792;28;20429;-82
2021/12/21 09:40:17;;;;;;;40.40;26.30;;;1.70;99.90;;;;;;4955663;28;20051;-79
2021/12/21 09:42:43;;;;;;;36.30;21.92;;;1.20;99.90;;;;;;4953770;28;20121;-79
2021/12/21 09:45:12;;;;;;;31.65;18.02;;;1.30;99.90;;;;;;4937072;28;20054;-80
2021/12/21 09:47:38;;;;;;;28.90;16.10;;;0.90;99.90;;;;;;4957803;28;20038;-81
2021/12/21 09:50:05;;;;;;;20.30;11.32;;;1.30;99.90;;;;;;4955196;28;20102;-77
2021/12/21 09:52:32;;;;;;;22.25;10.68;;;1.40;99.90;;;;;;4940654;28;20122;-77
2021/12/21 09:55:00;;;;;;;21.90;9.57;;;1.40;99.90;;;;;;4955913;28;20047;-78
2021/12/21 09:57:28;;;;;;;16.52;7.95;;;1.50;99.90;;;;;;4973353;28;20042;-78
2021/12/21 09:59:54;;;;;;;18.55;8.27;;;1.80;99.90;;;;;;4938135;28;20505;-81
2021/12/21 10:02:25;;;;;;;18.58;8.63;;;1.50;99.90;;;;;;4951086;28;20047;-82
2021/12/21 10:04:55;;;;;;;17.42;7.70;;;1.60;99.90;;;;;;4940634;28;20514;-83
2021/12/21 10:07:22;;;;;;;16.15;7.50;;;1.60;99.90;;;;;;4941385;28;20054;-78
2021/12/21 10:09:50;;;;;;;16.02;7.40;;;1.70;99.90;;;;;;4939308;28;20038;-84
2021/12/21 10:12:34;;;;;;;13.82;6.97;;;1.60;99.90;;;;;;4930656;29;20046;-83
2021/12/21 10:15:10;;;;;;;16.80;7.10;;;1.90;99.90;;;;;;4970732;28;20522;-83
2021/12/21 10:17:36;;;;;;;;;;;1.80;99.90;;;;;;4956546;28;20047;-83
2021/12/21 10:20:06;;;;;;;;;;;2.40;99.90;;;;;;4973915;28;19917;-82
2021/12/21 10:22:32;;;;;;;16.25;6.57;;;2.00;99.90;;;;;;4954847;28;19918;-83
2021/12/21 10:25:02;;;;;;;14.30;7.72;;;2.00;99.90;;;;;;4940174;28;20507;-83
2021/12/21 10:27:27;;;;;;;15.05;6.45;;;1.90;99.90;;;;;;4935886;29;20137;-83
2021/12/21 10:29:59;;;;;;;14.85;7.55;;;1.90;99.90;;;;;;4932545;28;20102;-82
2021/12/21 10:32:31;;;;;;;16.52;7.20;;;1.90;99.90;;;;;;4955579;28;20038;-82
2021/12/21 10:35:05;;;;;;;11.85;6.63;;;2.40;99.90;;;;;;4956135;28;20113;-79
2021/12/21 10:37:40;;;;;;;20.25;7.18;;;2.00;99.90;;;;;;4971073;28;20105;-83
2021/12/21 10:40:07;;;;;;;;;;;2.10;99.90;;;;;;4952449;28;20411;-79
2021/12/21 10:42:46;;;;;;;18.05;7.10;;;2.10;99.90;;;;;;4943507;29;19922;-79
2021/12/21 10:45:16;;;;;;;14.93;6.57;;;2.10;99.90;;;;;;4951686;29;20082;-83
2021/12/21 10:47:46;;;;;;;13.45;6.72;;;2.40;99.90;;;;;;4949296;29;20047;-81
2021/12/21 10:50:14;;;;;;;17.63;7.32;;;2.10;99.90;;;;;;4933154;29;20066;-81
2021/12/21 10:52:47;;;;;;;21.70;7.75;;;2.20;99.90;;;;;;4940881;29;20043;-78
2021/12/21 10:55:13;;;;;;;19.70;7.68;;;2.20;99.90;;;;;;4951844;29;20505;-84
2021/12/21 10:57:39;;;;;;;14.48;7.22;;;2.20;99.90;;;;;;4950566;29;20050;-82
2021/12/21 11:00:14;;;;;;;17.75;7.68;;;3.10;99.90;;;;;;4929010;29;20411;-78
2021/12/21 11:02:41;;;;;;;17.88;8.25;;;2.30;99.90;;;;;;4929905;29;20476;-81
2021/12/21 11:05:13;;;;;;;17.35;7.05;;;2.30;99.90;;;;;;4902062;29;20102;-81
2021/12/21 11:07:47;;;;;;;12.82;6.78;;;2.30;99.90;;;;;;4949542;29;20047;-81
2021/12/21 11:10:30;;;;;;;18.23;6.88;;;2.40;99.90;;;;;;4933243;29;20051;-87
2021/12/21 11:12:57;;;;;;;15.43;6.38;;;2.40;99.90;;;;;;4935218;29;20044;-86
2021/12/21 11:15:30;;;;;;;16.23;7.03;;;2.90;99.90;;;;;;4937135;29;20070;-87
2021/12/21 11:18:03;;;;;;;15.15;6.75;;;2.50;99.90;;;;;;4937944;29;20071;-87
2021/12/21 11:20:31;;;;;;;14.65;6.72;;;2.50;99.90;;;;;;4937593;29;20324;-87
2021/12/21 11:22:57;;;;;;;15.43;6.97;;;2.50;99.90;;;;;;4936611;29;20107;-87
2021/12/21 11:25:26;;;;;;;17.15;6.28;;;2.70;99.90;;;;;;4937831;29;20066;-87
2021/12/21 11:27:52;;;;;;;13.50;6.28;;;3.20;99.90;;;;;;4936515;29;20043;-81
2021/12/21 11:30:24;;;;;;;13.60;6.13;;;2.90;99.90;;;;;;4953905;29;20115;-81
2021/12/21 11:32:52;;;;;;;12.45;6.30;;;3.00;99.90;;;;;;4937102;29;20447;-81
2021/12/21 11:37:59;;;;;;;14.25;5.95;;;2.80;99.90;;;;;;4954363;28;20449;-81
2021/12/21 11:40:38;;;;;;;9.50;5.93;;;2.80;99.90;;;;;;4939100;29;20051;-81
2021/12/21 11:43:22;;;;;;;14.35;6.30;;;2.60;99.90;;;;;;4956610;28;20123;-81
2021/12/21 11:45:57;;;;;;;15.23;5.55;;;2.90;99.90;;;;;;4957888;28;20467;-81
2021/12/21 11:48:53;;;;;;;12.88;5.90;;;2.90;99.90;;;;;;4957622;28;20388;-86
2021/12/21 11:51:24;;;;;;;14.38;6.20;;;2.90;99.90;;;;;;4956723;29;20137;-86
2021/12/21 11:53:50;;;;;;;19.00;7.00;;;2.90;99.90;;;;;;4956622;29;20075;-82
2021/12/21 11:56:25;;;;;;;14.20;6.32;;;3.00;99.90;;;;;;4940518;29;20455;-81
2021/12/21 11:58:53;;;;;;;13.10;6.43;;;3.20;99.90;;;;;;4956235;29;20050;-81
2021/12/21 12:01:25;;;;;;;15.15;6.07;;;3.20;99.90;;;;;;4935828;29;20052;-81
2021/12/21 12:04:03;;;;;;;16.80;6.15;;;3.00;99.90;;;;;;4937600;29;20055;-86
2021/12/21 12:06:56;;;;;;;10.77;6.35;;;3.60;99.90;;;;;;4953279;29;20466;-86
2021/12/21 12:09:33;;;;;;;16.38;6.50;;;3.10;99.90;;;;;;4956055;29;20043;-81
2021/12/21 12:12:15;;;;;;;14.55;6.75;;;3.40;99.90;;;;;;4957511;28;20050;-81
2021/12/21 12:14:59;;;;;;;13.75;6.38;;;3.10;99.90;;;;;;4956187;29;20500;-86
2021/12/21 12:17:26;;;;;;;13.52;6.93;;;3.10;99.90;;;;;;4955080;29;20081;-86
2021/12/21 12:20:04;;;;;;;13.98;7.00;;;3.40;99.90;;;;;;4940449;29;20124;-82
2021/12/21 12:22:35;;;;;;;15.82;6.60;;;3.20;99.90;;;;;;4940195;29;20043;-86
2021/12/21 12:25:01;;;;;;;12.48;6.20;;;3.10;99.90;;;;;;4956287;29;20098;-86
2021/12/21 12:27:29;;;;;;;13.70;6.75;;;3.60;99.90;;;;;;4940193;29;20488;-86
2021/12/21 12:29:56;;;;;;;15.35;6.50;;;3.40;99.90;;;;;;4955906;29;20062;-86
2021/12/21 12:33:06;;;;;;;17.13;6.05;;;3.20;99.90;;;;;;4947785;29;20428;-82
2021/12/21 12:35:35;;;;;;;14.55;5.57;;;3.20;99.90;;;;;;4937133;29;20040;-82
2021/12/21 12:38:28;;;;;;;11.73;6.47;;;2.90;99.90;;;;;;4952871;28;20039;-81
2021/12/21 12:41:03;;;;;;;13.27;6.57;;;3.30;99.90;;;;;;4967393;28;20051;-86
2021/12/21 12:43:34;;;;;;;16.90;6.57;;;3.30;99.90;;;;;;4958056;28;20082;-83
2021/12/21 12:46:09;;;;;;;12.07;5.75;;;3.40;99.90;;;;;;4942874;28;20432;-86
2021/12/21 12:48:47;;;;;;;17.23;5.85;;;3.40;99.90;;;;;;4958158;28;20108;-86
2021/12/21 12:51:32;;;;;;;14.50;5.05;;;3.40;99.90;;;;;;4975587;28;20105;-82
2021/12/21 12:53:58;;;;;;;11.93;5.13;;;4.00;99.90;;;;;;4958752;28;20447;-83
2021/12/21 12:56:27;;;;;;;9.75;4.97;;;4.20;99.90;;;;;;4942423;28;20070;-86
2021/12/21 12:58:57;;;;;;;14.45;5.22;;;3.60;99.90;;;;;;4943054;28;20372;-82
2021/12/21 13:01:26;;;;;;;21.23;5.53;;;3.40;99.90;;;;;;4959161;28;20380;-86
2021/12/21 13:03:55;;;;;;;13.15;5.32;;;3.70;99.90;;;;;;4942620;28;20043;-83
2021/12/21 13:06:26;;;;;;;14.85;5.63;;;3.60;99.90;;;;;;4923830;29;20071;-86
2021/12/21 13:08:52;;;;;;;9.98;5.15;;;3.60;99.90;;;;;;4924098;29;20039;-85
2021/12/21 13:11:26;;;;;;;10.07;4.85;;;3.70;99.90;;;;;;4942472;29;20035;-83
2021/12/21 13:13:54;;;;;;;15.15;5.22;;;3.80;99.90;;;;;;4939221;29;20472;-87
2021/12/21 13:16:23;;;;;;;16.35;5.47;;;4.20;99.90;;;;;;4956262;29;20446;-82
2021/12/21 13:18:54;;;;;;;26.90;6.30;;;4.40;99.90;;;;;;4939127;29;20047;-82
2021/12/21 13:21:26;;;;;;;16.48;5.75;;;4.50;99.90;;;;;;4951388;29;20058;-82
2021/12/21 13:24:03;;;;;;;14.20;5.97;;;3.90;99.90;;;;;;4938845;29;20094;-83
2021/12/21 13:26:48;;;;;;;15.43;5.43;;;3.90;99.90;;;;;;4927704;29;20078;-80
2021/12/21 13:29:18;;;;;;;17.23;5.50;;;4.00;99.90;;;;;;4952821;28;20053;-82
2021/12/21 13:31:52;;;;;;;14.73;5.80;;;4.00;99.90;;;;;;4958563;28;20101;-81
2021/12/21 13:34:20;;;;;;;26.80;6.30;;;4.10;99.90;;;;;;4941951;28;20066;-81
2021/12/21 13:36:52;;;;;;;14.15;6.20;;;4.30;99.90;;;;;;4952222;29;20514;-89
2021/12/21 13:39:21;;;;;;;14.48;5.80;;;4.70;99.90;;;;;;4907234;28;20404;-87
2021/12/21 13:41:59;;;;;;;15.80;5.47;;;4.40;99.90;;;;;;4929879;28;20047;-84
2021/12/21 13:44:32;;;;;;;14.57;5.40;;;4.60;99.90;;;;;;4954101;28;20398;-85
2021/12/21 13:47:00;;;;;;;12.57;4.55;;;4.60;99.90;;;;;;4932867;29;20396;-84
2021/12/21 13:49:27;;;;;;;11.88;5.63;;;4.60;99.90;;;;;;4931492;28;20120;-83
2021/12/21 13:51:55;;;;;;;12.93;5.57;;;4.60;99.90;;;;;;4954204;28;20510;-82
2021/12/21 13:54:22;;;;;;;12.35;5.55;;;4.50;99.90;;;;;;4971526;28;20388;-83
2021/12/21 13:56:49;;;;;;;13.40;5.68;;;5.10;99.90;;;;;;4939284;28;20043;-87
2021/12/21 13:59:16;;;;;;;9.32;4.28;;;4.60;99.90;;;;;;4934802;28;20182;-79
2021/12/21 14:01:45;;;;;;;9.98;4.50;;;4.20;99.90;;;;;;4955197;28;20086;-81
2021/12/21 14:04:24;;;;;;;12.70;4.80;;;4.20;99.90;;;;;;4917348;28;20444;-83
2021/12/21 14:06:50;;;;;;;14.13;4.95;;;4.00;99.90;;;;;;4937643;28;20043;-82
2021/12/21 14:09:19;;;;;;;12.00;4.65;;;4.00;99.90;;;;;;4921317;28;20038;-81